sensor_id;sensor_type;location;lat;lon;timestamp;P1;durP1;ratioP1;P2;durP2;ratioP2
61702;SDS011;47622;47.726;3.298;2022-08-21T00:01:01;6.10;;;2.13;;
61702;SDS011;47622;47.726;3.298;2022-08-21T00:03:32;3.95;;;2.20;;
61702;SDS011;47622;47.726;3.298;2022-08-21T00:05:58;6.05;;;2.33;;
61702;SDS011;47622;47.726;3.298;2022-08-21T00:08:24;5.65;;;2.45;;
61702;SDS011;47622;47.726;3.298;2022-08-21T00:13:16;5.55;;;1.80;;
61702;SDS011;47622;47.726;3.298;2022-08-21T00:40:09;5.85;;;1.90;;
61702;SDS011;47622;47.726;3.298;2022-08-21T00:42:38;5.38;;;2.10;;
61702;SDS011;47622;47.726;3.298;2022-08-21T00:45:04;9.27;;;2.58;;
61702;SDS011;47622;47.726;3.298;2022-08-21T00:47:30;4.93;;;1.88;;
61702;SDS011;47622;47.726;3.298;2022-08-21T00:49:56;5.32;;;2.30;;
61702;SDS011;47622;47.726;3.298;2022-08-21T00:52:24;5.57;;;1.95;;
61702;SDS011;47622;47.726;3.298;2022-08-21T01:09:38;5.10;;;2.13;;
61702;SDS011;47622;47.726;3.298;2022-08-21T01:12:05;5.35;;;2.30;;
61702;SDS011;47622;47.726;3.298;2022-08-21T01:14:32;5.90;;;2.35;;
61702;SDS011;47622;47.726;3.298;2022-08-21T01:16:58;4.53;;;1.90;;
61702;SDS011;47622;47.726;3.298;2022-08-21T01:19:25;3.25;;;1.80;;
61702;SDS011;47622;47.726;3.298;2022-08-21T01:21:52;9.02;;;1.95;;
61702;SDS011;47622;47.726;3.298;2022-08-21T01:24:18;4.43;;;1.95;;
61702;SDS011;47622;47.726;3.298;2022-08-21T01:26:45;3.53;;;1.77;;
61702;SDS011;47622;47.726;3.298;2022-08-21T01:31:51;5.00;;;1.88;;
61702;SDS011;47622;47.726;3.298;2022-08-21T01:34:17;4.47;;;1.83;;
61702;SDS011;47622;47.726;3.298;2022-08-21T01:51:20;6.35;;;1.90;;
61702;SDS011;47622;47.726;3.298;2022-08-21T01:53:46;6.25;;;2.05;;
61702;SDS011;47622;47.726;3.298;2022-08-21T01:56:13;6.00;;;1.98;;
61702;SDS011;47622;47.726;3.298;2022-08-21T02:01:08;4.65;;;1.85;;
61702;SDS011;47622;47.726;3.298;2022-08-21T02:03:35;6.90;;;2.30;;
61702;SDS011;47622;47.726;3.298;2022-08-21T02:06:01;4.55;;;2.30;;
61702;SDS011;47622;47.726;3.298;2022-08-21T02:08:28;6.72;;;2.17;;
61702;SDS011;47622;47.726;3.298;2022-08-21T02:10:54;6.05;;;1.77;;
61702;SDS011;47622;47.726;3.298;2022-08-21T02:13:20;7.80;;;2.08;;
61702;SDS011;47622;47.726;3.298;2022-08-21T02:15:46;4.65;;;2.28;;
61702;SDS011;47622;47.726;3.298;2022-08-21T02:18:12;4.68;;;2.20;;
61702;SDS011;47622;47.726;3.298;2022-08-21T02:20:39;3.65;;;1.92;;
61702;SDS011;47622;47.726;3.298;2022-08-21T02:23:08;4.30;;;1.90;;
61702;SDS011;47622;47.726;3.298;2022-08-21T02:28:05;2.92;;;1.95;;
61702;SDS011;47622;47.726;3.298;2022-08-21T02:30:35;3.92;;;2.03;;
61702;SDS011;47622;47.726;3.298;2022-08-21T02:33:04;6.68;;;2.08;;
61702;SDS011;47622;47.726;3.298;2022-08-21T02:35:30;8.38;;;2.15;;
61702;SDS011;47622;47.726;3.298;2022-08-21T02:37:57;4.18;;;1.95;;
61702;SDS011;47622;47.726;3.298;2022-08-21T02:40:28;4.22;;;2.00;;
61702;SDS011;47622;47.726;3.298;2022-08-21T02:42:56;5.65;;;2.20;;
61702;SDS011;47622;47.726;3.298;2022-08-21T02:47:49;4.60;;;2.25;;
61702;SDS011;47622;47.726;3.298;2022-08-21T02:50:20;3.47;;;1.88;;
61702;SDS011;47622;47.726;3.298;2022-08-21T02:52:47;6.25;;;2.15;;
61702;SDS011;47622;47.726;3.298;2022-08-21T02:55:14;7.10;;;2.08;;
61702;SDS011;47622;47.726;3.298;2022-08-21T02:57:41;5.25;;;2.40;;
61702;SDS011;47622;47.726;3.298;2022-08-21T03:00:07;3.10;;;1.98;;
61702;SDS011;47622;47.726;3.298;2022-08-21T03:02:36;6.78;;;1.95;;
61702;SDS011;47622;47.726;3.298;2022-08-21T03:05:02;3.60;;;1.67;;
61702;SDS011;47622;47.726;3.298;2022-08-21T03:07:28;7.68;;;2.03;;
61702;SDS011;47622;47.726;3.298;2022-08-21T03:09:55;3.13;;;1.98;;
61702;SDS011;47622;47.726;3.298;2022-08-21T03:12:21;5.72;;;2.17;;
61702;SDS011;47622;47.726;3.298;2022-08-21T03:14:47;9.75;;;2.28;;
61702;SDS011;47622;47.726;3.298;2022-08-21T03:17:12;3.65;;;2.05;;
61702;SDS011;47622;47.726;3.298;2022-08-21T03:19:38;5.05;;;1.95;;
61702;SDS011;47622;47.726;3.298;2022-08-21T03:22:04;5.95;;;2.15;;
61702;SDS011;47622;47.726;3.298;2022-08-21T03:24:30;3.97;;;1.98;;
61702;SDS011;47622;47.726;3.298;2022-08-21T03:26:56;3.53;;;2.05;;
61702;SDS011;47622;47.726;3.298;2022-08-21T03:29:22;3.05;;;1.88;;
61702;SDS011;47622;47.726;3.298;2022-08-21T03:31:48;4.30;;;2.10;;
61702;SDS011;47622;47.726;3.298;2022-08-21T03:34:14;4.15;;;2.10;;
61702;SDS011;47622;47.726;3.298;2022-08-21T03:36:40;8.45;;;2.33;;
61702;SDS011;47622;47.726;3.298;2022-08-21T03:39:06;5.25;;;1.92;;
61702;SDS011;47622;47.726;3.298;2022-08-21T03:41:33;6.25;;;1.90;;
61702;SDS011;47622;47.726;3.298;2022-08-21T03:43:59;8.52;;;1.98;;
61702;SDS011;47622;47.726;3.298;2022-08-21T03:46:25;4.65;;;1.88;;
61702;SDS011;47622;47.726;3.298;2022-08-21T03:48:51;6.75;;;2.05;;
61702;SDS011;47622;47.726;3.298;2022-08-21T03:51:18;3.22;;;1.80;;
61702;SDS011;47622;47.726;3.298;2022-08-21T03:53:44;3.42;;;1.98;;
61702;SDS011;47622;47.726;3.298;2022-08-21T03:56:10;4.53;;;2.33;;
61702;SDS011;47622;47.726;3.298;2022-08-21T03:58:36;3.45;;;1.85;;
61702;SDS011;47622;47.726;3.298;2022-08-21T04:01:03;3.08;;;1.85;;
61702;SDS011;47622;47.726;3.298;2022-08-21T04:03:35;3.78;;;1.70;;
61702;SDS011;47622;47.726;3.298;2022-08-21T04:06:01;5.35;;;2.05;;
61702;SDS011;47622;47.726;3.298;2022-08-21T04:08:27;4.35;;;1.83;;
61702;SDS011;47622;47.726;3.298;2022-08-21T04:10:54;2.97;;;1.90;;
61702;SDS011;47622;47.726;3.298;2022-08-21T04:13:22;3.92;;;2.00;;
61702;SDS011;47622;47.726;3.298;2022-08-21T04:15:48;5.20;;;1.55;;
61702;SDS011;47622;47.726;3.298;2022-08-21T04:18:14;4.40;;;1.90;;
61702;SDS011;47622;47.726;3.298;2022-08-21T04:20:41;2.65;;;1.85;;
61702;SDS011;47622;47.726;3.298;2022-08-21T04:23:09;4.90;;;1.90;;
61702;SDS011;47622;47.726;3.298;2022-08-21T04:25:35;3.35;;;1.70;;
61702;SDS011;47622;47.726;3.298;2022-08-21T04:28:00;6.07;;;1.98;;
61702;SDS011;47622;47.726;3.298;2022-08-21T04:30:27;3.05;;;2.10;;
61702;SDS011;47622;47.726;3.298;2022-08-21T04:32:53;3.35;;;1.70;;
61702;SDS011;47622;47.726;3.298;2022-08-21T04:35:20;3.38;;;1.90;;
61702;SDS011;47622;47.726;3.298;2022-08-21T04:37:47;3.30;;;1.92;;
61702;SDS011;47622;47.726;3.298;2022-08-21T04:40:14;4.72;;;1.80;;
61702;SDS011;47622;47.726;3.298;2022-08-21T04:42:45;4.10;;;2.00;;
61702;SDS011;47622;47.726;3.298;2022-08-21T04:45:21;6.15;;;2.35;;
61702;SDS011;47622;47.726;3.298;2022-08-21T04:47:50;3.08;;;1.90;;
61702;SDS011;47622;47.726;3.298;2022-08-21T04:50:18;5.82;;;1.98;;
61702;SDS011;47622;47.726;3.298;2022-08-21T04:52:47;5.10;;;1.98;;
61702;SDS011;47622;47.726;3.298;2022-08-21T04:55:13;5.32;;;2.00;;
61702;SDS011;47622;47.726;3.298;2022-08-21T04:57:40;8.45;;;2.28;;
61702;SDS011;47622;47.726;3.298;2022-08-21T05:00:07;3.47;;;1.92;;
61702;SDS011;47622;47.726;3.298;2022-08-21T05:02:34;4.72;;;1.98;;
61702;SDS011;47622;47.726;3.298;2022-08-21T05:05:01;5.05;;;1.80;;
61702;SDS011;47622;47.726;3.298;2022-08-21T05:07:28;2.83;;;1.55;;
61702;SDS011;47622;47.726;3.298;2022-08-21T05:09:55;3.90;;;1.92;;
61702;SDS011;47622;47.726;3.298;2022-08-21T05:12:22;3.38;;;1.70;;
61702;SDS011;47622;47.726;3.298;2022-08-21T05:14:48;2.83;;;1.65;;
61702;SDS011;47622;47.726;3.298;2022-08-21T05:17:14;4.88;;;1.58;;
61702;SDS011;47622;47.726;3.298;2022-08-21T05:19:40;2.92;;;1.52;;
61702;SDS011;47622;47.726;3.298;2022-08-21T05:22:05;3.45;;;1.58;;
61702;SDS011;47622;47.726;3.298;2022-08-21T05:24:31;4.13;;;1.50;;
61702;SDS011;47622;47.726;3.298;2022-08-21T05:26:57;3.13;;;1.60;;
61702;SDS011;47622;47.726;3.298;2022-08-21T05:29:23;1.55;;;1.38;;
61702;SDS011;47622;47.726;3.298;2022-08-21T05:31:49;3.10;;;1.90;;
61702;SDS011;47622;47.726;3.298;2022-08-21T05:34:19;4.70;;;1.70;;
61702;SDS011;47622;47.726;3.298;2022-08-21T05:36:47;2.70;;;1.60;;
61702;SDS011;47622;47.726;3.298;2022-08-21T05:39:13;3.75;;;1.60;;
61702;SDS011;47622;47.726;3.298;2022-08-21T05:41:39;1.85;;;1.40;;
61702;SDS011;47622;47.726;3.298;2022-08-21T05:44:05;3.33;;;1.83;;
61702;SDS011;47622;47.726;3.298;2022-08-21T05:46:31;4.03;;;1.50;;
61702;SDS011;47622;47.726;3.298;2022-08-21T05:48:57;6.88;;;1.75;;
61702;SDS011;47622;47.726;3.298;2022-08-21T05:51:23;3.45;;;1.60;;
61702;SDS011;47622;47.726;3.298;2022-08-21T05:53:49;2.92;;;1.70;;
61702;SDS011;47622;47.726;3.298;2022-08-21T05:56:14;2.72;;;1.70;;
61702;SDS011;47622;47.726;3.298;2022-08-21T05:58:42;2.95;;;1.80;;
61702;SDS011;47622;47.726;3.298;2022-08-21T06:01:07;3.10;;;1.90;;
61702;SDS011;47622;47.726;3.298;2022-08-21T06:03:35;3.92;;;2.17;;
61702;SDS011;47622;47.726;3.298;2022-08-21T06:06:03;4.70;;;2.35;;
61702;SDS011;47622;47.726;3.298;2022-08-21T06:08:29;7.22;;;2.55;;
61702;SDS011;47622;47.726;3.298;2022-08-21T06:10:56;5.85;;;2.28;;
61702;SDS011;47622;47.726;3.298;2022-08-21T06:13:24;7.10;;;2.53;;
61702;SDS011;47622;47.726;3.298;2022-08-21T06:16:00;3.60;;;2.03;;
61702;SDS011;47622;47.726;3.298;2022-08-21T06:18:27;5.47;;;2.20;;
61702;SDS011;47622;47.726;3.298;2022-08-21T06:20:53;4.95;;;2.78;;
61702;SDS011;47622;47.726;3.298;2022-08-21T06:23:19;5.93;;;2.38;;
61702;SDS011;47622;47.726;3.298;2022-08-21T06:25:45;6.60;;;2.50;;
61702;SDS011;47622;47.726;3.298;2022-08-21T06:28:11;4.07;;;2.20;;
61702;SDS011;47622;47.726;3.298;2022-08-21T06:30:37;3.28;;;2.40;;
61702;SDS011;47622;47.726;3.298;2022-08-21T06:33:04;4.25;;;2.35;;
61702;SDS011;47622;47.726;3.298;2022-08-21T06:35:32;4.45;;;2.30;;
61702;SDS011;47622;47.726;3.298;2022-08-21T06:37:59;5.68;;;2.45;;
61702;SDS011;47622;47.726;3.298;2022-08-21T06:40:28;4.18;;;2.40;;
61702;SDS011;47622;47.726;3.298;2022-08-21T06:42:56;4.13;;;2.45;;
61702;SDS011;47622;47.726;3.298;2022-08-21T06:45:29;4.78;;;2.58;;
61702;SDS011;47622;47.726;3.298;2022-08-21T06:47:55;4.57;;;2.50;;
61702;SDS011;47622;47.726;3.298;2022-08-21T06:50:21;5.28;;;2.38;;
61702;SDS011;47622;47.726;3.298;2022-08-21T06:52:47;5.65;;;2.10;;
61702;SDS011;47622;47.726;3.298;2022-08-21T06:55:14;7.30;;;1.88;;
61702;SDS011;47622;47.726;3.298;2022-08-21T06:57:40;5.22;;;2.00;;
61702;SDS011;47622;47.726;3.298;2022-08-21T07:00:06;4.38;;;1.95;;
61702;SDS011;47622;47.726;3.298;2022-08-21T07:02:33;5.28;;;1.90;;
61702;SDS011;47622;47.726;3.298;2022-08-21T07:04:59;6.05;;;2.15;;
61702;SDS011;47622;47.726;3.298;2022-08-21T07:07:25;7.70;;;2.30;;
61702;SDS011;47622;47.726;3.298;2022-08-21T07:09:51;6.93;;;2.22;;
61702;SDS011;47622;47.726;3.298;2022-08-21T07:12:17;4.85;;;1.98;;
61702;SDS011;47622;47.726;3.298;2022-08-21T07:14:44;6.97;;;2.20;;
61702;SDS011;47622;47.726;3.298;2022-08-21T07:17:10;4.47;;;2.40;;
61702;SDS011;47622;47.726;3.298;2022-08-21T07:19:36;4.88;;;2.15;;
61702;SDS011;47622;47.726;3.298;2022-08-21T07:22:02;6.40;;;1.60;;
61702;SDS011;47622;47.726;3.298;2022-08-21T07:24:28;5.78;;;2.60;;
61702;SDS011;47622;47.726;3.298;2022-08-21T07:26:56;6.90;;;2.33;;
61702;SDS011;47622;47.726;3.298;2022-08-21T07:29:22;4.53;;;1.90;;
61702;SDS011;47622;47.726;3.298;2022-08-21T07:34:15;4.88;;;1.92;;
61702;SDS011;47622;47.726;3.298;2022-08-21T07:39:10;4.72;;;1.73;;
61702;SDS011;47622;47.726;3.298;2022-08-21T07:46:28;4.78;;;1.92;;
61702;SDS011;47622;47.726;3.298;2022-08-21T07:48:55;9.82;;;2.33;;
61702;SDS011;47622;47.726;3.298;2022-08-21T07:51:21;5.38;;;1.90;;
61702;SDS011;47622;47.726;3.298;2022-08-21T07:53:53;6.22;;;1.90;;
61702;SDS011;47622;47.726;3.298;2022-08-21T07:56:20;5.70;;;1.90;;
61702;SDS011;47622;47.726;3.298;2022-08-21T07:58:47;5.28;;;1.85;;
61702;SDS011;47622;47.726;3.298;2022-08-21T08:01:13;3.75;;;1.70;;
61702;SDS011;47622;47.726;3.298;2022-08-21T08:03:39;4.57;;;1.75;;
61702;SDS011;47622;47.726;3.298;2022-08-21T08:08:33;2.77;;;1.50;;
61702;SDS011;47622;47.726;3.298;2022-08-21T08:10:59;6.30;;;1.70;;
61702;SDS011;47622;47.726;3.298;2022-08-21T08:13:26;4.70;;;1.70;;
61702;SDS011;47622;47.726;3.298;2022-08-21T08:15:52;4.90;;;1.65;;
61702;SDS011;47622;47.726;3.298;2022-08-21T08:18:18;3.70;;;1.20;;
61702;SDS011;47622;47.726;3.298;2022-08-21T08:20:44;3.17;;;1.65;;
61702;SDS011;47622;47.726;3.298;2022-08-21T08:23:11;5.05;;;1.73;;
61702;SDS011;47622;47.726;3.298;2022-08-21T08:25:38;3.63;;;1.40;;
61702;SDS011;47622;47.726;3.298;2022-08-21T08:28:04;5.10;;;1.95;;
61702;SDS011;47622;47.726;3.298;2022-08-21T08:30:31;2.78;;;1.30;;
61702;SDS011;47622;47.726;3.298;2022-08-21T08:32:57;3.03;;;1.35;;
61702;SDS011;47622;47.726;3.298;2022-08-21T08:35:24;2.75;;;1.30;;
61702;SDS011;47622;47.726;3.298;2022-08-21T08:37:51;4.18;;;1.60;;
61702;SDS011;47622;47.726;3.298;2022-08-21T08:40:22;3.58;;;1.50;;
61702;SDS011;47622;47.726;3.298;2022-08-21T08:42:50;4.25;;;1.20;;
61702;SDS011;47622;47.726;3.298;2022-08-21T08:45:18;3.30;;;1.30;;
61702;SDS011;47622;47.726;3.298;2022-08-21T08:50:43;2.25;;;1.08;;
61702;SDS011;47622;47.726;3.298;2022-08-21T08:53:14;2.08;;;1.02;;
61702;SDS011;47622;47.726;3.298;2022-08-21T09:01:12;1.77;;;1.00;;
61702;SDS011;47622;47.726;3.298;2022-08-21T09:03:42;1.42;;;0.80;;
61702;SDS011;47622;47.726;3.298;2022-08-21T09:11:26;2.20;;;1.00;;
61702;SDS011;47622;47.726;3.298;2022-08-21T09:14:05;2.55;;;0.88;;
61702;SDS011;47622;47.726;3.298;2022-08-21T09:19:59;2.92;;;0.80;;
61702;SDS011;47622;47.726;3.298;2022-08-21T09:22:39;1.77;;;0.77;;
61702;SDS011;47622;47.726;3.298;2022-08-21T09:25:12;2.33;;;0.70;;
61702;SDS011;47622;47.726;3.298;2022-08-21T09:27:49;3.55;;;0.98;;
61702;SDS011;47622;47.726;3.298;2022-08-21T09:30:15;3.03;;;0.80;;
61702;SDS011;47622;47.726;3.298;2022-08-21T09:32:42;2.70;;;0.90;;
61702;SDS011;47622;47.726;3.298;2022-08-21T09:37:45;2.03;;;0.90;;
61702;SDS011;47622;47.726;3.298;2022-08-21T09:40:15;3.72;;;1.10;;
61702;SDS011;47622;47.726;3.298;2022-08-21T09:43:03;3.20;;;0.88;;
61702;SDS011;47622;47.726;3.298;2022-08-21T09:45:31;2.38;;;1.10;;
61702;SDS011;47622;47.726;3.298;2022-08-21T09:48:14;2.95;;;1.10;;
61702;SDS011;47622;47.726;3.298;2022-08-21T09:50:45;5.60;;;1.05;;
61702;SDS011;47622;47.726;3.298;2022-08-21T09:53:25;1.02;;;0.70;;
61702;SDS011;47622;47.726;3.298;2022-08-21T09:56:02;3.50;;;0.80;;
61702;SDS011;47622;47.726;3.298;2022-08-21T09:58:48;2.45;;;1.40;;
61702;SDS011;47622;47.726;3.298;2022-08-21T10:01:20;2.38;;;1.17;;
61702;SDS011;47622;47.726;3.298;2022-08-21T10:03:48;2.90;;;1.00;;
61702;SDS011;47622;47.726;3.298;2022-08-21T10:06:22;2.45;;;1.10;;
61702;SDS011;47622;47.726;3.298;2022-08-21T10:09:02;2.17;;;1.00;;
61702;SDS011;47622;47.726;3.298;2022-08-21T10:11:40;2.78;;;0.88;;
61702;SDS011;47622;47.726;3.298;2022-08-21T10:14:33;3.58;;;1.05;;
61702;SDS011;47622;47.726;3.298;2022-08-21T10:20:07;2.13;;;0.85;;
61702;SDS011;47622;47.726;3.298;2022-08-21T10:22:44;1.63;;;0.90;;
61702;SDS011;47622;47.726;3.298;2022-08-21T10:25:14;1.90;;;0.90;;
61702;SDS011;47622;47.726;3.298;2022-08-21T10:28:01;1.85;;;0.90;;
61702;SDS011;47622;47.726;3.298;2022-08-21T10:30:56;3.35;;;0.93;;
61702;SDS011;47622;47.726;3.298;2022-08-21T10:39:01;1.67;;;0.98;;
61702;SDS011;47622;47.726;3.298;2022-08-21T10:49:42;1.75;;;0.77;;
61702;SDS011;47622;47.726;3.298;2022-08-21T10:55:06;3.97;;;1.05;;
61702;SDS011;47622;47.726;3.298;2022-08-21T10:58:04;1.52;;;0.70;;
61702;SDS011;47622;47.726;3.298;2022-08-21T11:00:45;2.22;;;1.20;;
61702;SDS011;47622;47.726;3.298;2022-08-21T11:03:27;1.33;;;1.10;;
61702;SDS011;47622;47.726;3.298;2022-08-21T11:08:46;1.95;;;0.85;;
61702;SDS011;47622;47.726;3.298;2022-08-21T11:11:22;1.02;;;0.77;;
61702;SDS011;47622;47.726;3.298;2022-08-21T11:13:57;4.50;;;1.00;;
61702;SDS011;47622;47.726;3.298;2022-08-21T11:16:44;1.17;;;0.68;;
61702;SDS011;47622;47.726;3.298;2022-08-21T11:19:17;2.63;;;0.93;;
61702;SDS011;47622;47.726;3.298;2022-08-21T11:21:57;1.75;;;0.80;;
61702;SDS011;47622;47.726;3.298;2022-08-21T11:24:38;3.20;;;0.90;;
61702;SDS011;47622;47.726;3.298;2022-08-21T11:27:21;4.00;;;0.90;;
61702;SDS011;47622;47.726;3.298;2022-08-21T11:29:55;1.25;;;0.90;;
61702;SDS011;47622;47.726;3.298;2022-08-21T11:32:30;1.48;;;0.70;;
61702;SDS011;47622;47.726;3.298;2022-08-21T11:35:19;1.40;;;0.80;;
61702;SDS011;47622;47.726;3.298;2022-08-21T11:48:57;2.38;;;0.77;;
61702;SDS011;47622;47.726;3.298;2022-08-21T11:51:34;3.83;;;0.93;;
61702;SDS011;47622;47.726;3.298;2022-08-21T11:56:54;1.58;;;0.80;;
61702;SDS011;47622;47.726;3.298;2022-08-21T12:00:26;5.32;;;1.15;;
61702;SDS011;47622;47.726;3.298;2022-08-21T12:02:28;2.15;;;0.90;;
61702;SDS011;47622;47.726;3.298;2022-08-21T12:05:03;2.55;;;0.88;;
61702;SDS011;47622;47.726;3.298;2022-08-21T12:07:36;1.25;;;0.90;;
61702;SDS011;47622;47.726;3.298;2022-08-21T12:12:35;4.07;;;1.15;;
61702;SDS011;47622;47.726;3.298;2022-08-21T12:17:51;1.88;;;0.70;;
61702;SDS011;47622;47.726;3.298;2022-08-21T12:23:03;2.83;;;0.90;;
61702;SDS011;47622;47.726;3.298;2022-08-21T12:28:11;1.27;;;0.80;;
61702;SDS011;47622;47.726;3.298;2022-08-21T12:30:41;3.35;;;1.00;;
61702;SDS011;47622;47.726;3.298;2022-08-21T12:38:39;2.05;;;0.90;;
61702;SDS011;47622;47.726;3.298;2022-08-21T12:41:28;2.85;;;1.05;;
61702;SDS011;47622;47.726;3.298;2022-08-21T12:43:59;1.67;;;0.90;;
61702;SDS011;47622;47.726;3.298;2022-08-21T12:46:37;1.50;;;0.90;;
61702;SDS011;47622;47.726;3.298;2022-08-21T12:49:31;4.30;;;0.82;;
61702;SDS011;47622;47.726;3.298;2022-08-21T12:52:22;4.07;;;1.02;;
61702;SDS011;47622;47.726;3.298;2022-08-21T12:54:54;0.95;;;0.75;;
61702;SDS011;47622;47.726;3.298;2022-08-21T12:57:25;3.85;;;1.00;;
61702;SDS011;47622;47.726;3.298;2022-08-21T12:59:53;2.40;;;0.73;;
61702;SDS011;47622;47.726;3.298;2022-08-21T13:02:32;2.15;;;0.70;;
61702;SDS011;47622;47.726;3.298;2022-08-21T13:05:06;1.63;;;0.70;;
61702;SDS011;47622;47.726;3.298;2022-08-21T13:07:37;1.27;;;0.65;;
61702;SDS011;47622;47.726;3.298;2022-08-21T13:10:05;2.38;;;0.93;;
61702;SDS011;47622;47.726;3.298;2022-08-21T13:12:41;0.93;;;0.70;;
61702;SDS011;47622;47.726;3.298;2022-08-21T13:15:10;2.50;;;0.93;;
61702;SDS011;47622;47.726;3.298;2022-08-21T13:17:40;1.10;;;0.85;;
61702;SDS011;47622;47.726;3.298;2022-08-21T13:20:21;3.47;;;1.30;;
61702;SDS011;47622;47.726;3.298;2022-08-21T13:22:50;1.38;;;1.17;;
61702;SDS011;47622;47.726;3.298;2022-08-21T13:25:18;3.08;;;1.42;;
61702;SDS011;47622;47.726;3.298;2022-08-21T13:27:56;3.25;;;1.45;;
61702;SDS011;47622;47.726;3.298;2022-08-21T13:30:25;1.98;;;1.10;;
61702;SDS011;47622;47.726;3.298;2022-08-21T13:32:52;2.45;;;1.30;;
61702;SDS011;47622;47.726;3.298;2022-08-21T13:35:23;2.22;;;1.30;;
61702;SDS011;47622;47.726;3.298;2022-08-21T13:37:54;2.38;;;1.30;;
61702;SDS011;47622;47.726;3.298;2022-08-21T13:40:26;2.40;;;1.20;;
61702;SDS011;47622;47.726;3.298;2022-08-21T13:42:55;2.80;;;1.05;;
61702;SDS011;47622;47.726;3.298;2022-08-21T13:45:26;1.80;;;1.10;;
61702;SDS011;47622;47.726;3.298;2022-08-21T13:47:56;2.80;;;1.10;;
61702;SDS011;47622;47.726;3.298;2022-08-21T13:50:24;3.85;;;1.30;;
61702;SDS011;47622;47.726;3.298;2022-08-21T13:52:56;1.77;;;0.98;;
61702;SDS011;47622;47.726;3.298;2022-08-21T13:55:38;3.28;;;1.10;;
61702;SDS011;47622;47.726;3.298;2022-08-21T13:58:06;2.05;;;0.90;;
61702;SDS011;47622;47.726;3.298;2022-08-21T14:00:35;3.30;;;1.30;;
61702;SDS011;47622;47.726;3.298;2022-08-21T14:03:10;1.77;;;1.02;;
61702;SDS011;47622;47.726;3.298;2022-08-21T14:05:43;1.40;;;1.13;;
61702;SDS011;47622;47.726;3.298;2022-08-21T14:08:14;3.38;;;1.50;;
61702;SDS011;47622;47.726;3.298;2022-08-21T14:10:48;4.25;;;1.27;;
61702;SDS011;47622;47.726;3.298;2022-08-21T14:21:36;4.40;;;1.33;;
61702;SDS011;47622;47.726;3.298;2022-08-21T14:26:51;2.95;;;1.10;;
61702;SDS011;47622;47.726;3.298;2022-08-21T14:29:19;1.95;;;1.17;;
61702;SDS011;47622;47.726;3.298;2022-08-21T14:31:51;2.08;;;1.10;;
61702;SDS011;47622;47.726;3.298;2022-08-21T14:34:19;1.65;;;1.08;;
61702;SDS011;47622;47.726;3.298;2022-08-21T14:36:46;1.85;;;1.10;;
61702;SDS011;47622;47.726;3.298;2022-08-21T14:39:12;2.90;;;1.23;;
61702;SDS011;47622;47.726;3.298;2022-08-21T14:41:38;2.55;;;1.30;;
61702;SDS011;47622;47.726;3.298;2022-08-21T14:44:05;2.13;;;1.10;;
61702;SDS011;47622;47.726;3.298;2022-08-21T14:46:32;1.20;;;1.10;;
61702;SDS011;47622;47.726;3.298;2022-08-21T14:49:00;2.75;;;1.10;;
61702;SDS011;47622;47.726;3.298;2022-08-21T14:51:26;1.63;;;1.00;;
61702;SDS011;47622;47.726;3.298;2022-08-21T14:53:52;1.38;;;1.00;;
61702;SDS011;47622;47.726;3.298;2022-08-21T14:56:18;1.80;;;1.08;;
61702;SDS011;47622;47.726;3.298;2022-08-21T14:58:45;2.08;;;1.20;;
61702;SDS011;47622;47.726;3.298;2022-08-21T15:01:17;3.03;;;1.20;;
61702;SDS011;47622;47.726;3.298;2022-08-21T15:03:46;1.30;;;0.90;;
61702;SDS011;47622;47.726;3.298;2022-08-21T15:06:13;1.52;;;1.10;;
61702;SDS011;47622;47.726;3.298;2022-08-21T15:08:41;1.30;;;1.10;;
61702;SDS011;47622;47.726;3.298;2022-08-21T15:11:08;2.28;;;1.13;;
61702;SDS011;47622;47.726;3.298;2022-08-21T15:13:41;3.05;;;1.10;;
61702;SDS011;47622;47.726;3.298;2022-08-21T15:16:07;4.57;;;2.75;;
61702;SDS011;47622;47.726;3.298;2022-08-21T15:18:35;1.92;;;1.10;;
61702;SDS011;47622;47.726;3.298;2022-08-21T15:21:02;2.88;;;1.25;;
61702;SDS011;47622;47.726;3.298;2022-08-21T15:23:27;2.47;;;1.10;;
61702;SDS011;47622;47.726;3.298;2022-08-21T15:25:54;1.52;;;1.00;;
61702;SDS011;47622;47.726;3.298;2022-08-21T15:28:22;2.42;;;1.00;;
61702;SDS011;47622;47.726;3.298;2022-08-21T15:30:50;1.63;;;1.00;;
61702;SDS011;47622;47.726;3.298;2022-08-21T15:33:17;1.02;;;0.93;;
61702;SDS011;47622;47.726;3.298;2022-08-21T15:35:43;2.13;;;0.80;;
61702;SDS011;47622;47.726;3.298;2022-08-21T15:38:11;3.40;;;1.17;;
61702;SDS011;47622;47.726;3.298;2022-08-21T15:40:38;1.42;;;1.10;;
61702;SDS011;47622;47.726;3.298;2022-08-21T15:43:06;1.83;;;1.00;;
61702;SDS011;47622;47.726;3.298;2022-08-21T15:45:44;2.60;;;1.10;;
61702;SDS011;47622;47.726;3.298;2022-08-21T15:48:10;2.65;;;1.00;;
61702;SDS011;47622;47.726;3.298;2022-08-21T15:50:36;2.28;;;1.05;;
61702;SDS011;47622;47.726;3.298;2022-08-21T15:53:02;1.10;;;1.00;;
61702;SDS011;47622;47.726;3.298;2022-08-21T15:55:28;1.73;;;0.98;;
61702;SDS011;47622;47.726;3.298;2022-08-21T15:57:54;3.60;;;0.93;;
61702;SDS011;47622;47.726;3.298;2022-08-21T16:00:23;3.75;;;1.02;;
61702;SDS011;47622;47.726;3.298;2022-08-21T16:02:51;2.05;;;0.85;;
61702;SDS011;47622;47.726;3.298;2022-08-21T16:05:20;1.30;;;0.90;;
61702;SDS011;47622;47.726;3.298;2022-08-21T16:07:47;2.40;;;1.05;;
61702;SDS011;47622;47.726;3.298;2022-08-21T16:10:15;2.55;;;1.00;;
61702;SDS011;47622;47.726;3.298;2022-08-21T16:12:46;1.75;;;0.90;;
61702;SDS011;47622;47.726;3.298;2022-08-21T16:15:16;0.80;;;0.77;;
61702;SDS011;47622;47.726;3.298;2022-08-21T16:17:43;2.63;;;1.10;;
61702;SDS011;47622;47.726;3.298;2022-08-21T16:20:14;1.45;;;0.80;;
61702;SDS011;47622;47.726;3.298;2022-08-21T16:22:42;0.95;;;0.82;;
61702;SDS011;47622;47.726;3.298;2022-08-21T16:25:08;1.42;;;0.90;;
61702;SDS011;47622;47.726;3.298;2022-08-21T16:27:34;2.10;;;1.00;;
61702;SDS011;47622;47.726;3.298;2022-08-21T16:30:00;2.65;;;0.98;;
61702;SDS011;47622;47.726;3.298;2022-08-21T16:32:28;2.25;;;0.80;;
61702;SDS011;47622;47.726;3.298;2022-08-21T16:34:54;1.13;;;0.90;;
61702;SDS011;47622;47.726;3.298;2022-08-21T16:37:20;2.80;;;0.80;;
61702;SDS011;47622;47.726;3.298;2022-08-21T16:39:46;3.50;;;1.00;;
61702;SDS011;47622;47.726;3.298;2022-08-21T16:42:14;1.77;;;0.73;;
61702;SDS011;47622;47.726;3.298;2022-08-21T16:44:43;1.45;;;0.90;;
61702;SDS011;47622;47.726;3.298;2022-08-21T16:47:09;1.77;;;0.90;;
61702;SDS011;47622;47.726;3.298;2022-08-21T16:49:35;1.40;;;0.90;;
61702;SDS011;47622;47.726;3.298;2022-08-21T16:52:01;0.70;;;0.70;;
61702;SDS011;47622;47.726;3.298;2022-08-21T16:54:28;1.48;;;0.90;;
61702;SDS011;47622;47.726;3.298;2022-08-21T16:56:55;2.25;;;0.80;;
61702;SDS011;47622;47.726;3.298;2022-08-21T16:59:21;2.03;;;0.95;;
61702;SDS011;47622;47.726;3.298;2022-08-21T17:01:47;0.93;;;0.68;;
61702;SDS011;47622;47.726;3.298;2022-08-21T17:04:14;1.67;;;0.90;;
61702;SDS011;47622;47.726;3.298;2022-08-21T17:06:40;1.30;;;0.73;;
61702;SDS011;47622;47.726;3.298;2022-08-21T17:09:06;2.55;;;1.30;;
61702;SDS011;47622;47.726;3.298;2022-08-21T17:11:36;1.80;;;0.90;;
61702;SDS011;47622;47.726;3.298;2022-08-21T17:14:06;1.35;;;0.85;;
61702;SDS011;47622;47.726;3.298;2022-08-21T17:16:35;1.27;;;0.60;;
61702;SDS011;47622;47.726;3.298;2022-08-21T17:19:02;1.15;;;0.90;;
61702;SDS011;47622;47.726;3.298;2022-08-21T17:21:28;0.90;;;0.70;;
61702;SDS011;47622;47.726;3.298;2022-08-21T17:23:54;1.35;;;1.00;;
61702;SDS011;47622;47.726;3.298;2022-08-21T17:26:20;1.00;;;0.80;;
61702;SDS011;47622;47.726;3.298;2022-08-21T17:28:45;0.73;;;0.70;;
61702;SDS011;47622;47.726;3.298;2022-08-21T17:31:11;1.75;;;0.70;;
61702;SDS011;47622;47.726;3.298;2022-08-21T17:33:45;1.58;;;0.85;;
61702;SDS011;47622;47.726;3.298;2022-08-21T17:36:19;2.40;;;0.80;;
61702;SDS011;47622;47.726;3.298;2022-08-21T17:38:47;1.55;;;0.85;;
61702;SDS011;47622;47.726;3.298;2022-08-21T17:41:13;1.80;;;0.68;;